createdAt,value
2023-04-28T00:01:51.851Z,5.54
2023-04-28T00:04:19.977Z,5.50
2023-04-28T00:06:48.512Z,5.49
2023-04-28T00:09:16.374Z,5.46
2023-04-28T00:11:44.072Z,5.45
2023-04-28T00:14:11.797Z,5.42
2023-04-28T00:16:39.565Z,5.41
2023-04-28T00:19:07.843Z,5.38
2023-04-28T00:21:35.609Z,5.36
2023-04-28T00:24:03.366Z,5.39
2023-04-28T00:26:31.156Z,5.38
2023-04-28T00:28:58.894Z,5.36
2023-04-28T00:31:26.748Z,5.35
2023-04-28T00:33:54.525Z,5.33
2023-04-28T00:36:22.195Z,5.30
2023-04-28T00:38:49.848Z,5.32
2023-04-28T00:41:17.739Z,5.30
2023-04-28T00:43:45.885Z,5.28
2023-04-28T00:46:13.728Z,5.25
2023-04-28T00:48:41.622Z,5.22
2023-04-28T00:51:09.386Z,5.21
2023-04-28T00:53:37.148Z,5.19
2023-04-28T00:56:04.811Z,5.16
2023-04-28T00:58:32.583Z,5.13
2023-04-28T01:01:00.314Z,5.09
2023-04-28T01:03:28.081Z,5.05
2023-04-28T01:05:55.887Z,5.04
2023-04-28T01:08:24.245Z,5.05
2023-04-28T01:10:51.908Z,5.09
2023-04-28T01:13:19.569Z,5.11
2023-04-28T01:15:47.334Z,5.10
2023-04-28T01:18:15.202Z,5.11
2023-04-28T01:20:42.863Z,5.11
2023-04-28T01:23:10.626Z,5.12
2023-04-28T01:25:38.289Z,5.12
2023-04-28T01:28:06.254Z,5.12
2023-04-28T01:30:34.027Z,5.13
2023-04-28T01:33:01.779Z,5.12
2023-04-28T01:35:29.653Z,5.11
2023-04-28T01:37:57.415Z,5.10
2023-04-28T01:40:25.180Z,5.08
2023-04-28T01:42:53.047Z,5.06
2023-04-28T01:45:20.810Z,5.04
2023-04-28T01:47:48.533Z,5.01
2023-04-28T01:50:16.502Z,5.04
2023-04-28T01:52:44.312Z,5.10
2023-04-28T01:55:12.081Z,5.15
2023-04-28T01:57:39.868Z,5.13
2023-04-28T02:00:07.598Z,5.13
2023-04-28T02:02:35.341Z,5.13
2023-04-28T02:05:03.714Z,5.15
2023-04-28T02:07:31.401Z,5.16
2023-04-28T02:09:59.064Z,5.15
2023-04-28T02:12:26.931Z,5.13
2023-04-28T02:14:54.699Z,5.15
2023-04-28T02:17:22.441Z,5.13
2023-04-28T02:19:50.221Z,5.09
2023-04-28T02:22:17.883Z,5.06
2023-04-28T02:24:45.546Z,5.07
2023-04-28T02:27:13.717Z,5.08
2023-04-28T02:29:42.302Z,5.07
2023-04-28T02:32:10.165Z,5.04
2023-04-28T02:34:37.826Z,5.07
2023-04-28T02:37:05.488Z,5.10
2023-04-28T02:39:33.560Z,5.08
2023-04-28T02:42:01.222Z,5.08
2023-04-28T02:44:28.885Z,5.09
2023-04-28T02:46:56.927Z,5.10
2023-04-28T02:49:24.831Z,5.12
2023-04-28T02:51:52.485Z,5.12
2023-04-28T02:54:27.726Z,5.04
2023-04-28T02:56:55.602Z,4.98
2023-04-28T02:59:23.252Z,4.97
2023-04-28T03:01:51.906Z,4.99
2023-04-28T03:04:19.919Z,5.01
2023-04-28T03:06:48.083Z,5.03
2023-04-28T03:09:15.858Z,5.04
2023-04-28T03:11:43.609Z,5.06
2023-04-28T03:14:11.678Z,5.06
2023-04-28T03:16:39.395Z,5.09
2023-04-28T03:19:07.207Z,5.14
2023-04-28T03:21:34.869Z,5.15
2023-04-28T03:24:04.794Z,5.16
2023-04-28T03:26:33.476Z,5.15
2023-04-28T03:29:01.238Z,5.15
2023-04-28T03:31:29.147Z,5.17
2023-04-28T03:33:56.966Z,5.17
2023-04-28T03:36:24.627Z,5.18
2023-04-28T03:38:52.297Z,5.16
2023-04-28T03:41:19.958Z,5.14
2023-04-28T03:43:47.613Z,5.10
2023-04-28T03:46:15.355Z,5.08
2023-04-28T03:48:43.247Z,5.06
2023-04-28T03:51:10.903Z,5.03
2023-04-28T03:53:38.566Z,5.00
2023-04-28T03:56:06.535Z,5.03
2023-04-28T03:58:34.207Z,5.07
2023-04-28T04:01:02.051Z,5.04
2023-04-28T04:03:29.981Z,5.03
2023-04-28T04:05:57.897Z,5.07
2023-04-28T04:08:25.559Z,5.10
2023-04-28T04:10:55.034Z,5.11
2023-04-28T04:13:22.843Z,5.11
2023-04-28T04:15:51.134Z,5.11
2023-04-28T04:18:18.872Z,5.11
2023-04-28T04:20:46.536Z,5.13
2023-04-28T04:23:14.195Z,5.14
2023-04-28T04:25:41.856Z,5.16
2023-04-28T04:28:09.619Z,5.17
2023-04-28T04:30:37.386Z,5.19
2023-04-28T04:33:05.109Z,5.21
2023-04-28T04:35:33.012Z,5.24
2023-04-28T04:38:01.544Z,5.34
2023-04-28T04:40:29.465Z,5.40
2023-04-28T04:42:57.236Z,5.44
2023-04-28T04:45:24.890Z,5.50
2023-04-28T04:47:52.592Z,5.57
2023-04-28T04:50:20.432Z,5.63
2023-04-28T04:52:48.187Z,5.68
2023-04-28T04:55:15.947Z,5.73
2023-04-28T04:57:43.606Z,5.79
2023-04-28T05:00:11.479Z,5.83
2023-04-28T05:02:39.419Z,5.86
2023-04-28T05:05:20.456Z,5.90
2023-04-28T05:07:49.418Z,5.94
2023-04-28T05:10:17.481Z,6.00
2023-04-28T05:12:47.515Z,6.04
2023-04-28T05:15:16.695Z,6.07
2023-04-28T05:17:44.511Z,6.11
2023-04-28T05:20:12.915Z,6.15
2023-04-28T05:22:40.912Z,6.18
2023-04-28T05:25:08.572Z,6.21
2023-04-28T05:27:39.532Z,6.25
2023-04-28T05:30:07.849Z,6.31
2023-04-28T05:32:35.925Z,6.35
2023-04-28T05:35:03.721Z,6.40
2023-04-28T05:37:31.402Z,6.50
2023-04-28T05:39:59.362Z,6.59
2023-04-28T05:42:27.126Z,6.64
2023-04-28T05:44:54.902Z,6.70
2023-04-28T05:47:22.770Z,6.77
2023-04-28T05:49:50.616Z,6.83
2023-04-28T05:52:18.477Z,6.89
2023-04-28T05:54:46.244Z,6.94
2023-04-28T05:57:13.907Z,7.00
2023-04-28T05:59:41.574Z,7.04
2023-04-28T06:02:09.496Z,7.06
2023-04-28T06:04:37.671Z,7.09
2023-04-28T06:07:05.478Z,7.11
2023-04-28T06:09:33.138Z,7.14
2023-04-28T06:12:00.800Z,7.17
2023-04-28T06:14:28.568Z,7.20
2023-04-28T06:16:56.328Z,7.23
2023-04-28T06:19:24.090Z,7.26
2023-04-28T06:21:52.984Z,7.29
2023-04-28T06:24:21.273Z,7.32
2023-04-28T06:26:49.023Z,7.35
2023-04-28T06:29:16.791Z,7.39
2023-04-28T06:31:44.596Z,7.41
2023-04-28T06:34:12.519Z,7.44
2023-04-28T06:36:40.283Z,7.49
2023-04-28T06:39:08.460Z,7.52
2023-04-28T06:41:36.122Z,7.56
2023-04-28T06:44:03.890Z,7.62
2023-04-28T06:46:32.389Z,7.67
2023-04-28T06:49:00.134Z,7.72
2023-04-28T06:51:29.020Z,7.76
2023-04-28T06:53:57.313Z,7.80
2023-04-28T06:56:25.058Z,7.85
2023-04-28T06:58:53.129Z,7.89
2023-04-28T07:01:21.179Z,7.92
2023-04-28T07:03:49.413Z,7.96
2023-04-28T07:06:17.447Z,8.01
2023-04-28T07:08:45.315Z,8.07
2023-04-28T07:11:12.974Z,8.13
2023-04-28T07:13:40.743Z,8.17
2023-04-28T07:16:08.454Z,8.22
2023-04-28T07:18:36.269Z,8.27
2023-04-28T07:21:05.503Z,8.31
2023-04-28T07:23:33.599Z,8.36
2023-04-28T07:26:01.404Z,8.41
2023-04-28T07:28:29.069Z,8.47
2023-04-28T07:30:57.751Z,8.54
2023-04-28T07:33:25.516Z,8.59
2023-04-28T07:35:53.278Z,8.66
2023-04-28T07:38:21.353Z,8.71
2023-04-28T07:40:49.424Z,8.77
2023-04-28T07:43:17.181Z,8.83
2023-04-28T07:45:46.247Z,8.89
2023-04-28T07:48:13.993Z,8.96
2023-04-28T07:50:41.810Z,9.02
2023-04-28T07:53:09.469Z,9.07
2023-04-28T07:55:37.539Z,9.14
2023-04-28T07:58:05.302Z,9.21
2023-04-28T08:00:32.963Z,9.25
2023-04-28T08:03:00.789Z,9.31
2023-04-28T08:05:28.785Z,9.36
2023-04-28T08:07:56.668Z,9.41
2023-04-28T08:10:26.684Z,9.47
2023-04-28T08:12:54.551Z,9.53
2023-04-28T08:15:22.189Z,9.61
2023-04-28T08:17:49.959Z,9.70
2023-04-28T08:20:21.624Z,9.75
2023-04-28T08:22:51.168Z,9.81
2023-04-28T08:25:18.902Z,9.85
2023-04-28T08:27:46.775Z,9.92
2023-04-28T08:30:14.531Z,9.99
2023-04-28T08:32:42.375Z,10.08
2023-04-28T08:35:10.153Z,10.16
2023-04-28T08:37:37.922Z,10.20
2023-04-28T08:40:10.140Z,10.22
2023-04-28T08:42:38.493Z,10.26
2023-04-28T08:45:06.179Z,10.29
2023-04-28T08:47:34.077Z,10.35
2023-04-28T08:50:01.961Z,10.41
2023-04-28T08:52:29.623Z,10.45
2023-04-28T08:54:57.402Z,10.51
2023-04-28T08:57:25.178Z,10.61
2023-04-28T08:59:52.915Z,10.69
2023-04-28T09:02:20.649Z,10.78
2023-04-28T09:04:48.653Z,10.83
2023-04-28T09:07:16.833Z,10.90
2023-04-28T09:09:45.625Z,10.98
2023-04-28T09:12:13.382Z,11.09
2023-04-28T09:14:41.240Z,11.18
2023-04-28T09:17:08.902Z,11.27
2023-04-28T09:19:36.667Z,11.36
2023-04-28T09:22:17.496Z,11.43
2023-04-28T09:24:53.402Z,11.53
2023-04-28T09:27:21.772Z,11.63
2023-04-28T09:29:49.434Z,11.73
2023-04-28T09:32:17.237Z,11.83
2023-04-28T09:34:45.885Z,11.94
2023-04-28T09:37:13.565Z,12.07
2023-04-28T09:39:41.313Z,12.16
2023-04-28T09:42:08.986Z,12.25
2023-04-28T09:44:36.848Z,12.35
2023-04-28T09:47:04.815Z,12.48
2023-04-28T09:49:32.892Z,12.61
2023-04-28T09:52:00.545Z,12.67
2023-04-28T09:54:28.928Z,12.77
2023-04-28T09:56:57.118Z,12.90
2023-04-28T09:59:24.758Z,12.95
2023-04-28T10:01:53.160Z,12.95
2023-04-28T10:04:21.179Z,12.93
2023-04-28T10:06:48.963Z,12.98
2023-04-28T10:09:17.963Z,13.09
2023-04-28T10:11:46.343Z,13.25
2023-04-28T10:14:14.003Z,13.43
2023-04-28T10:16:41.667Z,13.57
2023-04-28T10:19:09.326Z,13.73
2023-04-28T10:21:37.397Z,13.85
2023-04-28T10:24:05.062Z,13.98
2023-04-28T10:26:32.928Z,14.09
2023-04-28T10:29:00.590Z,14.26
2023-04-28T10:31:28.306Z,14.41
2023-04-28T10:33:56.119Z,14.48
2023-04-28T10:36:33.645Z,14.62
2023-04-28T10:39:04.244Z,14.70
2023-04-28T10:41:31.907Z,14.72
2023-04-28T10:43:59.569Z,14.77
2023-04-28T10:46:27.267Z,14.68
2023-04-28T10:48:55.024Z,14.63
2023-04-28T10:51:24.502Z,14.73
2023-04-28T10:53:52.686Z,14.85
2023-04-28T10:56:20.538Z,14.94
2023-04-28T10:58:49.228Z,15.00
2023-04-28T11:01:17.001Z,15.03
2023-04-28T11:03:44.810Z,15.10
2023-04-28T11:06:12.931Z,15.18
2023-04-28T11:08:40.586Z,15.26
2023-04-28T11:11:08.256Z,15.31
2023-04-28T11:13:36.313Z,15.40
2023-04-28T11:16:04.563Z,15.54
2023-04-28T11:18:32.306Z,15.56
2023-04-28T11:21:00.020Z,15.46
2023-04-28T11:23:28.408Z,15.46
2023-04-28T11:25:56.378Z,15.57
2023-04-28T11:28:24.138Z,15.69
2023-04-28T11:30:54.106Z,15.82
2023-04-28T11:33:22.522Z,15.94
2023-04-28T11:35:50.186Z,16.05
2023-04-28T11:38:17.848Z,16.19
2023-04-28T11:40:46.230Z,16.31
2023-04-28T11:43:13.988Z,16.41
2023-04-28T11:45:41.690Z,16.50
2023-04-28T11:48:09.801Z,16.61
2023-04-28T11:50:37.709Z,16.72
2023-04-28T11:53:05.466Z,16.80
2023-04-28T11:55:33.118Z,16.85
2023-04-28T11:58:00.987Z,16.89
2023-04-28T12:00:28.751Z,16.81
2023-04-28T12:02:57.457Z,16.72
2023-04-28T12:05:25.450Z,16.52
2023-04-28T12:07:53.290Z,16.46
2023-04-28T12:10:22.168Z,16.54
2023-04-28T12:12:52.406Z,16.59
2023-04-28T12:15:22.245Z,16.54
2023-04-28T12:17:51.585Z,16.62
2023-04-28T12:20:20.077Z,16.70
2023-04-28T12:22:47.945Z,16.78
2023-04-28T12:25:16.940Z,16.87
2023-04-28T12:27:44.595Z,16.98
2023-04-28T12:30:12.673Z,17.08
2023-04-28T12:32:40.481Z,17.16
2023-04-28T12:35:08.612Z,17.21
2023-04-28T12:37:36.476Z,17.33
2023-04-28T12:40:05.096Z,17.41
2023-04-28T12:42:33.032Z,17.42
2023-04-28T12:45:00.692Z,17.48
2023-04-28T12:47:28.441Z,17.50
2023-04-28T12:49:56.119Z,17.54
2023-04-28T12:52:24.085Z,17.58
2023-04-28T12:54:51.861Z,17.57
2023-04-28T12:57:19.613Z,17.53
2023-04-28T12:59:52.612Z,17.43
2023-04-28T13:02:21.195Z,17.44
2023-04-28T13:04:49.159Z,17.48
2023-04-28T13:07:17.024Z,17.46
2023-04-28T13:09:44.992Z,17.49
2023-04-28T13:12:13.777Z,17.51
2023-04-28T13:14:41.758Z,17.51
2023-04-28T13:17:10.643Z,17.60
2023-04-28T13:19:40.141Z,17.69
2023-04-28T13:22:09.440Z,17.73
2023-04-28T13:24:37.205Z,17.73
2023-04-28T13:27:04.900Z,17.78
2023-04-28T13:29:32.835Z,17.76
2023-04-28T13:32:00.777Z,17.78
2023-04-28T13:34:31.132Z,17.81
2023-04-28T13:36:58.801Z,17.80
2023-04-28T13:39:26.450Z,17.83
2023-04-28T13:41:54.234Z,17.83
2023-04-28T13:44:22.388Z,17.83
2023-04-28T13:46:50.149Z,17.82
2023-04-28T13:49:17.924Z,17.82
2023-04-28T13:51:45.915Z,17.76
2023-04-28T13:54:13.749Z,17.74
2023-04-28T13:56:41.729Z,17.74
2023-04-28T13:59:09.506Z,17.76
2023-04-28T14:01:37.278Z,17.72
2023-04-28T14:04:05.317Z,17.58
2023-04-28T14:06:34.729Z,17.56
2023-04-28T14:09:03.730Z,17.53
2023-04-28T14:11:31.372Z,17.54
2023-04-28T14:13:59.037Z,17.55
2023-04-28T14:16:26.898Z,17.59
2023-04-28T14:18:55.801Z,17.59
2023-04-28T14:21:23.565Z,17.59
2023-04-28T14:23:51.523Z,17.62
2023-04-28T14:26:19.185Z,17.61
2023-04-28T14:28:48.095Z,17.57
2023-04-28T14:31:15.990Z,17.55
2023-04-28T14:33:43.710Z,17.50
2023-04-28T14:36:11.579Z,17.42
2023-04-28T14:38:40.273Z,17.42
2023-04-28T14:41:08.127Z,17.41
2023-04-28T14:43:35.787Z,17.46
2023-04-28T14:46:04.316Z,17.48
2023-04-28T14:48:32.496Z,17.38
2023-04-28T14:51:00.205Z,17.37
2023-04-28T14:53:27.877Z,17.40
2023-04-28T14:56:01.997Z,17.43
2023-04-28T14:58:35.272Z,17.43
2023-04-28T15:01:03.549Z,17.41
2023-04-28T15:03:31.350Z,17.37
2023-04-28T15:05:59.189Z,17.33
2023-04-28T15:08:28.812Z,17.32
2023-04-28T15:10:57.577Z,17.30
2023-04-28T15:13:28.924Z,17.28
2023-04-28T15:15:56.707Z,17.27
2023-04-28T15:18:24.759Z,17.27
2023-04-28T15:20:52.423Z,17.25
2023-04-28T15:23:20.522Z,17.26
2023-04-28T15:25:50.095Z,17.27
2023-04-28T15:28:17.962Z,17.30
2023-04-28T15:30:45.638Z,17.32
2023-04-28T15:33:17.575Z,17.34
2023-04-28T15:35:45.764Z,17.37
2023-04-28T15:38:13.425Z,17.38
2023-04-28T15:40:41.093Z,17.40
2023-04-28T15:43:08.770Z,17.37
2023-04-28T15:45:37.610Z,17.32
2023-04-28T15:48:06.635Z,17.28
2023-04-28T15:50:35.012Z,17.28
2023-04-28T15:53:03.492Z,17.29
2023-04-28T15:55:31.579Z,17.28
2023-04-28T15:57:59.233Z,17.26
2023-04-28T16:00:26.996Z,17.22
2023-04-28T16:02:54.741Z,17.23
2023-04-28T16:05:22.629Z,17.22
2023-04-28T16:07:50.590Z,17.22
2023-04-28T16:10:18.463Z,17.21
2023-04-28T16:12:46.222Z,17.18
2023-04-28T16:15:14.125Z,17.14
2023-04-28T16:17:42.280Z,17.09
2023-04-28T16:20:10.263Z,17.04
2023-04-28T16:22:38.232Z,17.01
2023-04-28T16:25:06.793Z,16.99
2023-04-28T16:27:34.866Z,16.94
2023-04-28T16:30:02.619Z,16.89
2023-04-28T16:32:30.822Z,16.84
2023-04-28T16:34:58.696Z,16.80
2023-04-28T16:37:26.434Z,16.76
2023-04-28T16:39:54.329Z,16.68
2023-04-28T16:42:22.794Z,16.58
2023-04-28T16:44:52.639Z,16.47
2023-04-28T16:47:21.137Z,16.37
2023-04-28T16:49:49.426Z,16.27
2023-04-28T16:52:17.292Z,16.16
2023-04-28T16:54:44.972Z,16.06
2023-04-28T16:57:12.738Z,15.96
2023-04-28T16:59:40.704Z,15.85
2023-04-28T17:02:08.597Z,15.73
2023-04-28T17:04:37.393Z,15.64
2023-04-28T17:07:06.149Z,15.54
2023-04-28T17:09:33.911Z,15.44
2023-04-28T17:12:03.814Z,15.34
2023-04-28T17:14:31.688Z,15.25
2023-04-28T17:16:59.772Z,15.14
2023-04-28T17:19:27.837Z,15.04
2023-04-28T17:21:55.913Z,14.96
2023-04-28T17:24:23.784Z,14.87
2023-04-28T17:26:52.049Z,14.80
2023-04-28T17:29:19.812Z,14.72
2023-04-28T17:31:47.525Z,14.64
2023-04-28T17:34:15.961Z,14.55
2023-04-28T17:36:43.718Z,14.47
2023-04-28T17:39:11.504Z,14.40
2023-04-28T17:41:39.350Z,14.32
2023-04-28T17:44:07.122Z,14.25
2023-04-28T17:46:35.124Z,14.17
2023-04-28T17:49:02.848Z,14.10
2023-04-28T17:51:30.521Z,14.03
2023-04-28T17:53:58.479Z,13.95
2023-04-28T17:56:26.562Z,13.87
2023-04-28T17:58:55.438Z,13.79
2023-04-28T18:01:23.115Z,13.72
2023-04-28T18:03:51.377Z,13.65
2023-04-28T18:06:22.514Z,13.58
2023-04-28T18:08:50.184Z,13.52
2023-04-28T18:11:17.848Z,13.46
2023-04-28T18:13:45.505Z,13.40
2023-04-28T18:16:15.261Z,13.35
2023-04-28T18:18:43.395Z,13.30
2023-04-28T18:21:11.257Z,13.24
2023-04-28T18:23:39.525Z,13.19
2023-04-28T18:26:07.293Z,13.16
2023-04-28T18:28:35.165Z,13.11
2023-04-28T18:31:02.930Z,13.07
2023-04-28T18:33:30.689Z,13.01
2023-04-28T18:35:58.350Z,12.96
2023-04-28T18:38:26.339Z,12.90
2023-04-28T18:40:54.389Z,12.84
2023-04-28T18:43:23.790Z,12.80
2023-04-28T18:45:51.695Z,12.74
2023-04-28T18:48:19.522Z,12.68
2023-04-28T18:50:50.265Z,12.64
2023-04-28T18:53:18.040Z,12.57
2023-04-28T18:55:45.909Z,12.53
2023-04-28T18:58:15.805Z,12.48
2023-04-28T19:00:46.101Z,12.43
2023-04-28T19:03:14.435Z,12.40
2023-04-28T19:05:43.299Z,12.33
2023-04-28T19:08:11.984Z,12.26
2023-04-28T19:10:39.950Z,12.22
2023-04-28T19:13:07.719Z,12.18
2023-04-28T19:15:35.486Z,12.14
2023-04-28T19:18:03.256Z,12.10
2023-04-28T19:20:31.010Z,12.06
2023-04-28T19:23:01.617Z,12.03
2023-04-28T19:25:30.943Z,12.01
2023-04-28T19:27:58.603Z,11.96
2023-04-28T19:30:26.981Z,11.91
2023-04-28T19:32:54.753Z,11.85
2023-04-28T19:35:22.826Z,11.78
2023-04-28T19:37:50.901Z,11.73
2023-04-28T19:40:18.667Z,11.71
2023-04-28T19:42:46.421Z,11.67
2023-04-28T19:45:14.280Z,11.65
2023-04-28T19:47:42.393Z,11.62
2023-04-28T19:50:10.935Z,11.58
2023-04-28T19:52:38.720Z,11.54
2023-04-28T19:55:06.464Z,11.53
2023-04-28T19:57:34.126Z,11.49
2023-04-28T20:00:01.920Z,11.47
2023-04-28T20:02:29.726Z,11.43
2023-04-28T20:04:58.029Z,11.42
2023-04-28T20:07:25.797Z,11.40
2023-04-28T20:09:56.322Z,11.39
2023-04-28T20:12:23.994Z,11.37
2023-04-28T20:14:53.495Z,11.34
2023-04-28T20:17:21.462Z,11.31
2023-04-28T20:19:49.427Z,11.29
2023-04-28T20:22:17.314Z,11.25
2023-04-28T20:24:45.176Z,11.19
2023-04-28T20:27:12.950Z,11.14
2023-04-28T20:29:41.726Z,11.13
2023-04-28T20:32:10.711Z,11.12
2023-04-28T20:34:38.678Z,11.10
2023-04-28T20:37:06.873Z,11.05
2023-04-28T20:39:34.921Z,11.01
2023-04-28T20:42:02.693Z,10.99
2023-04-28T20:44:30.656Z,10.96
2023-04-28T20:46:59.369Z,10.94
2023-04-28T20:49:27.721Z,10.91
2023-04-28T20:51:55.384Z,10.89
2023-04-28T20:54:23.457Z,10.86
2023-04-28T20:56:51.318Z,10.81
2023-04-28T20:59:18.981Z,10.78
2023-04-28T21:01:46.683Z,10.75
2023-04-28T21:04:14.921Z,10.74
2023-04-28T21:06:42.785Z,10.70
2023-04-28T21:09:10.448Z,10.69
2023-04-28T21:11:38.114Z,10.67
2023-04-28T21:14:05.770Z,10.65
2023-04-28T21:16:33.603Z,10.63
2023-04-28T21:19:01.501Z,10.59
2023-04-28T21:21:29.982Z,10.56
2023-04-28T21:23:57.647Z,10.53
2023-04-28T21:26:26.950Z,10.49
2023-04-28T21:28:54.916Z,10.45
2023-04-28T21:31:23.921Z,10.41
2023-04-28T21:33:51.783Z,10.36
2023-04-28T21:36:19.647Z,10.33
2023-04-28T21:38:47.406Z,10.29
2023-04-28T21:41:15.585Z,10.25
2023-04-28T21:43:43.344Z,10.20
2023-04-28T21:46:11.570Z,10.17
2023-04-28T21:48:39.382Z,10.13
2023-04-28T21:51:07.206Z,10.10
2023-04-28T21:53:34.912Z,10.07
2023-04-28T21:56:03.592Z,10.06
2023-04-28T21:58:31.256Z,10.03
2023-04-28T22:00:58.976Z,10.01
2023-04-28T22:03:27.571Z,9.95
2023-04-28T22:05:55.390Z,9.88
2023-04-28T22:08:23.142Z,9.83
2023-04-28T22:10:50.920Z,9.78
2023-04-28T22:13:18.660Z,9.75
2023-04-28T22:15:46.760Z,9.74
2023-04-28T22:18:14.600Z,9.73
2023-04-28T22:20:43.081Z,9.71
2023-04-28T22:23:10.947Z,9.68
2023-04-28T22:25:38.882Z,9.66
2023-04-28T22:28:06.689Z,9.64
2023-04-28T22:30:34.447Z,9.62
2023-04-28T22:33:02.226Z,9.60
2023-04-28T22:35:29.975Z,9.58
2023-04-28T22:37:57.639Z,9.55
2023-04-28T22:40:25.405Z,9.53
2023-04-28T22:42:53.064Z,9.50
2023-04-28T22:45:20.828Z,9.45
2023-04-28T22:47:48.635Z,9.41
2023-04-28T22:50:16.464Z,9.37
2023-04-28T22:52:44.120Z,9.32
2023-04-28T22:55:12.884Z,9.29
2023-04-28T22:57:40.567Z,9.26
2023-04-28T23:00:08.230Z,9.25
2023-04-28T23:02:36.387Z,9.26
2023-04-28T23:05:04.370Z,9.22
2023-04-28T23:07:32.036Z,9.19
2023-04-28T23:09:59.794Z,9.19
2023-04-28T23:12:27.458Z,9.17
2023-04-28T23:14:55.118Z,9.10
2023-04-28T23:17:22.820Z,9.06
2023-04-28T23:19:50.859Z,9.03
2023-04-28T23:22:18.823Z,8.99
2023-04-28T23:24:46.492Z,8.94
2023-04-28T23:27:14.142Z,8.89
2023-04-28T23:29:41.806Z,8.84
2023-04-28T23:32:09.877Z,8.80
2023-04-28T23:34:38.499Z,8.78
2023-04-28T23:37:06.842Z,8.78
2023-04-28T23:39:34.500Z,8.74
2023-04-28T23:42:02.679Z,8.71
2023-04-28T23:44:30.450Z,8.68
2023-04-28T23:46:58.119Z,8.66
2023-04-28T23:49:25.970Z,8.64
2023-04-28T23:51:53.629Z,8.59
2023-04-28T23:54:21.297Z,8.56
2023-04-28T23:56:49.362Z,8.53
2023-04-28T23:59:17.636Z,8.50
